Lynmouth, United Kingdom
Current Conditions -  °F | °C
As of 2:50 PM on Thursday 23 Oct 2014 (Local Time) from EGDX Reporting Station
Rain Showers Rain Showers  
Wind Chill: 59°   Ceiling: 1200
Heat Index: 59°   Visibility: 6mi
Dew Point: 57°   Wind: 13mph
Humidity: 94%   Direction: 240°WSW
Pressure: 30.03"   Gusts: NA
Location:  51.23°N, 3.83°W
Report Text: EGDX 231350Z 24011KT 9999 VCSH SCT008 BKN012 15/14 Q1017 GRN
Loading
Personal Weather Stations






























Interactive Weather Map
Tropical Storm Tracking
New forecast layout! Learn more

10-Day Weather Forecast

Advertisements
Track Severe Weather on mobile